Time;durP1;ratioP1;P1;durP2;ratioP2;P2;SDS_P1;SDS_P2;PMS_P1;PMS_P2;Temp;Humidity;BMP_temperature;BMP_pressure;BME280_temperature;BME280_humidity;BME280_pressure;Samples;Min_cycle;Max_cycle;Signal;HPM_P1;HPM_P2
2023/09/03 00:04:32;;;;;;;6.80;4.35;;;;;;;18.40;68.89;99814.25;4958352;29;20116;-96
2023/09/03 00:07:28;;;;;;;6.30;4.13;;;;;;;18.38;68.99;99820.78;4955715;29;20043;-96
2023/09/03 00:09:55;;;;;;;5.95;4.57;;;;;;;18.52;69.18;99839.03;4920577;29;20135;-96
2023/09/03 00:12:25;;;;;;;6.72;4.13;;;;;;;18.53;69.17;99832.44;4936512;29;20087;-96
2023/09/03 00:14:51;;;;;;;7.70;4.45;;;;;;;18.46;69.09;99813.00;4937835;29;20040;-96
2023/09/03 00:17:45;;;;;;;8.13;4.55;;;;;;;18.60;69.20;99827.38;4926386;29;20043;-96
2023/09/03 00:20:25;;;;;;;6.88;4.40;;;;;;;18.46;69.14;99805.63;4923420;29;20036;-96
2023/09/03 00:23:30;;;;;;;10.20;4.88;;;;;;;18.43;69.04;99795.34;4892453;29;20063;-96
2023/09/03 00:26:21;;;;;;;7.95;5.10;;;;;;;18.51;69.11;99813.69;4913597;29;20047;-97
2023/09/03 00:29:03;;;;;;;10.70;4.55;;;;;;;18.51;69.33;99810.97;4933466;29;20047;-96
2023/09/03 00:31:34;;;;;;;8.63;4.70;;;;;;;18.48;69.60;99802.59;4943567;29;20111;-96
2023/09/03 00:36:41;;;;;;;7.13;5.07;;;;;;;18.47;69.04;99809.97;5117425;23;20058;-96
2023/09/03 00:39:07;;;;;;;7.75;5.05;;;;;;;18.63;67.75;99802.19;4958287;28;20047;-95
2023/09/03 00:41:32;;;;;;;5.93;4.57;;;;;;;18.81;67.38;99805.88;4959589;28;20041;-94
2023/09/03 00:43:58;;;;;;;6.65;5.00;;;;;;;18.84;66.50;99799.78;4959716;28;20035;-95
2023/09/03 00:46:23;;;;;;;10.43;5.22;;;;;;;18.90;66.61;99803.97;4959686;28;20042;-94
2023/09/03 00:48:49;;;;;;;9.25;5.70;;;;;;;18.95;66.34;99806.59;4944134;28;20038;-95
2023/09/03 00:51:15;;;;;;;11.02;6.45;;;;;;;19.00;65.87;99802.91;4959569;28;20050;-94
2023/09/03 00:53:43;;;;;;;6.47;4.53;;;;;;;18.78;67.12;99799.13;4959622;28;20031;-94
2023/09/03 00:56:09;;;;;;;9.63;5.18;;;;;;;18.85;66.61;99806.06;4959734;28;20504;-95
2023/09/03 00:58:36;;;;;;;12.98;5.40;;;;;;;18.92;65.92;99806.41;4944689;28;20035;-94
2023/09/03 01:01:03;;;;;;;7.93;5.68;;;;;;;18.98;65.39;99797.75;4943887;28;20039;-94
2023/09/03 01:03:29;;;;;;;8.48;5.65;;;;;;;18.93;65.86;99794.38;4942562;28;20031;-95
2023/09/03 01:05:55;;;;;;;8.82;6.25;;;;;;;18.63;67.36;99794.00;4959396;28;20476;-96
2023/09/03 01:08:20;;;;;;;8.52;5.45;;;;;;;18.48;68.17;99797.13;4959181;28;20094;-96
2023/09/03 01:10:52;;;;;;;7.20;5.10;;;;;;;18.41;68.36;99804.94;4942955;28;20038;-94
2023/09/03 01:13:24;;;;;;;8.63;4.90;;;;;;;18.30;68.93;99798.91;4960460;28;20074;-95
2023/09/03 01:15:50;;;;;;;6.55;5.15;;;;;;;18.28;69.46;99807.44;4958483;28;20035;-94
2023/09/03 01:18:23;;;;;;;6.22;4.55;;;;;;;18.15;69.78;99808.28;4943477;28;20523;-94
2023/09/03 01:21:19;;;;;;;8.07;5.30;;;;;;;17.90;70.72;99805.00;4943965;28;20444;-94
2023/09/03 01:24:19;;;;;;;6.85;4.40;;;;;;;17.81;70.88;99806.03;4960177;28;20035;-94
2023/09/03 01:27:16;;;;;;;7.35;4.90;;;;;;;17.68;71.15;99807.66;4956353;28;20125;-95
2023/09/03 01:29:42;;;;;;;6.75;4.60;;;;;;;17.85;71.00;99821.47;4958899;28;20031;-94
2023/09/03 01:32:07;;;;;;;6.35;4.90;;;;;;;17.81;70.80;99806.84;4942841;28;20042;-94
2023/09/03 01:34:33;;;;;;;7.68;4.05;;;;;;;17.90;70.07;99805.00;4943231;28;20034;-96
2023/09/03 01:36:58;;;;;;;10.48;5.00;;;;;;;17.95;69.64;99806.81;4958741;28;20082;-95
2023/09/03 01:39:24;;;;;;;5.93;4.38;;;;;;;17.93;70.42;99809.88;4958851;28;20043;-95
2023/09/03 01:41:49;;;;;;;5.97;4.75;;;;;;;17.87;70.82;99805.63;4942259;28;20031;-95
2023/09/03 01:44:15;;;;;;;4.80;4.25;;;;;;;17.90;70.81;99815.91;4942647;28;20035;-95
2023/09/03 01:46:57;;;;;;;7.45;4.70;;;;;;;17.96;70.33;99805.72;4943076;28;20034;-95
2023/09/03 01:49:38;;;;;;;7.13;4.53;;;;;;;18.23;69.24;99817.66;4943659;28;20513;-96
2023/09/03 01:52:30;;;;;;;6.93;4.20;;;;;;;18.26;68.61;99809.66;4958661;28;20039;-95
2023/09/03 01:54:56;;;;;;;8.02;4.30;;;;;;;18.34;68.67;99819.00;4952982;28;20092;-95
2023/09/03 01:57:36;;;;;;;10.30;4.65;;;;;;;18.00;70.23;99814.88;4958271;28;20034;-94
2023/09/03 02:00:07;;;;;;;7.85;4.70;;;;;;;17.91;70.63;99819.47;4943135;28;20038;-95
2023/09/03 02:02:33;;;;;;;7.35;4.57;;;;;;;17.91;70.25;99803.91;4957742;28;20184;-96
2023/09/03 02:04:58;;;;;;;6.00;4.70;;;;;;;18.09;69.97;99821.19;4957908;28;20054;-94
2023/09/03 02:07:24;;;;;;;8.88;5.00;;;;;;;17.94;70.13;99806.00;4942515;28;20090;-95
2023/09/03 02:09:49;;;;;;;7.15;4.10;;;;;;;18.08;69.21;99805.97;4959388;28;20508;-96
2023/09/03 02:12:16;;;;;;;6.13;4.60;;;;;;;18.03;69.57;99808.81;4942679;28;20495;-96
2023/09/03 02:14:42;;;;;;;6.90;4.80;;;;;;;17.95;70.14;99802.19;4958085;28;20042;-94
2023/09/03 02:17:09;;;;;;;9.02;4.25;;;;;;;17.82;71.02;99813.06;4942878;28;20489;-96
2023/09/03 02:19:34;;;;;;;7.78;4.70;;;;;;;17.73;71.80;99815.72;4942962;28;20046;-95
2023/09/03 02:22:00;;;;;;;6.03;4.78;;;;;;;17.60;71.76;99806.47;4958412;28;20505;-96
2023/09/03 02:24:25;;;;;;;5.47;4.57;;;;;;;17.60;72.05;99814.63;4942118;28;20027;-95
2023/09/03 02:26:51;;;;;;;8.13;5.40;;;;;;;17.52;71.59;99804.47;4958446;28;20039;-94
2023/09/03 02:29:16;;;;;;;7.20;4.85;;;;;;;17.42;71.82;99808.19;4942479;28;20050;-94
2023/09/03 02:31:42;;;;;;;8.07;4.13;;;;;;;17.54;72.66;99829.47;4958804;28;20109;-94
2023/09/03 02:34:08;;;;;;;8.45;4.57;;;;;;;17.54;72.24;99818.56;4942092;28;20567;-94
2023/09/03 02:36:35;;;;;;;5.72;4.60;;;;;;;17.50;71.73;99809.41;4939310;29;20114;-96
2023/09/03 02:39:01;;;;;;;7.55;4.60;;;;;;;17.42;72.10;99810.91;4939619;29;20122;-94
2023/09/03 02:41:42;;;;;;;7.50;5.00;;;;;;;17.42;72.49;99829.16;4954699;29;20029;-96
2023/09/03 02:44:37;;;;;;;7.32;4.55;;;;;;;17.28;72.52;99810.91;4979496;28;20028;-96
2023/09/03 02:47:05;;;;;;;10.38;4.97;;;;;;;17.21;72.53;99801.53;4977099;29;20043;-95
2023/09/03 02:50:17;;;;;;;6.15;4.18;;;;;;;17.17;73.04;99793.16;4975278;28;20043;-96
2023/09/03 02:52:56;;;;;;;9.43;5.00;;;;;;;17.24;72.37;99803.66;4941043;29;20035;-96
2023/09/03 03:00:45;;;;;;;6.63;4.85;;;;;;;17.11;73.14;99814.22;5366717;23;19922;-96
2023/09/03 03:03:15;;;;;;;10.07;4.95;;;;;;;17.11;73.09;99825.09;4956909;28;20067;-96
2023/09/03 03:06:06;;;;;;;7.68;4.70;;;;;;;17.23;73.48;99834.72;4973407;28;20030;-96
2023/09/03 03:08:32;;;;;;;7.85;4.78;;;;;;;17.08;73.87;99814.84;4951837;28;20509;-96
2023/09/03 03:11:16;;;;;;;7.60;4.90;;;;;;;17.08;73.66;99814.84;4949151;28;20039;-96
2023/09/03 03:13:47;;;;;;;8.68;4.50;;;;;;;17.05;73.50;99809.97;4952517;28;20033;-96
2023/09/03 03:16:14;;;;;;;6.77;4.87;;;;;;;17.02;73.75;99812.53;4948559;28;20088;-96
2023/09/03 03:18:42;;;;;;;11.77;4.88;;;;;;;17.01;74.02;99817.13;4946597;28;20034;-96
2023/09/03 03:27:31;;;;;;;10.53;4.70;;;;;;;16.96;73.62;99796.28;4987773;28;20584;-96
2023/09/03 03:30:00;;;;;;;6.00;4.43;;;;;;;16.91;74.00;99803.72;4953418;28;20058;-96
2023/09/03 03:32:28;;;;;;;14.77;5.55;;;;;;;16.88;74.38;99807.84;4952021;28;20066;-96
2023/09/03 03:34:53;;;;;;;8.30;5.15;;;;;;;16.92;74.27;99814.31;4951871;28;20058;-95
2023/09/03 03:37:19;;;;;;;7.95;5.20;;;;;;;16.92;74.39;99813.50;4968017;28;20516;-96
2023/09/03 03:39:49;;;;;;;7.38;4.90;;;;;;;16.72;74.33;99792.88;4969601;28;20034;-96
2023/09/03 03:42:17;;;;;;;8.15;4.82;;;;;;;16.86;74.46;99804.63;4970231;28;20050;-96
2023/09/03 03:44:53;;;;;;;9.70;5.05;;;;;;;16.95;73.72;99808.28;4970962;28;20027;-95
2023/09/03 03:47:18;;;;;;;6.28;4.60;;;;;;;17.11;73.17;99806.06;4964975;28;20038;-96
2023/09/03 03:49:44;;;;;;;6.40;4.30;;;;;;;17.20;73.07;99805.34;4982202;28;20034;-96
2023/09/03 03:52:10;;;;;;;6.55;4.32;;;;;;;17.25;73.02;99799.84;4968133;28;20035;-96
2023/09/03 03:54:36;;;;;;;8.85;4.70;;;;;;;17.39;72.78;99819.69;4966723;28;20122;-96
2023/09/03 03:57:02;;;;;;;8.77;4.60;;;;;;;17.23;72.85;99800.13;4949473;28;20031;-96
2023/09/03 03:59:28;;;;;;;10.55;5.40;;;;;;;17.18;73.69;99794.78;4967558;28;20042;-96
2023/09/03 04:01:56;;;;;;;6.03;4.65;;;;;;;17.12;73.25;99793.25;4948347;28;20051;-95
2023/09/03 04:04:21;;;;;;;7.53;4.85;;;;;;;17.11;73.67;99807.97;4951238;28;20094;-96
2023/09/03 04:06:47;;;;;;;7.50;4.88;;;;;;;16.98;73.77;99806.06;4950625;28;20058;-95
2023/09/03 04:09:13;;;;;;;9.65;5.13;;;;;;;17.07;73.68;99826.81;4950046;28;20113;-95
2023/09/03 04:11:38;;;;;;;8.73;4.95;;;;;;;17.03;73.75;99814.91;4948478;28;20066;-96
2023/09/03 04:14:04;;;;;;;8.18;5.32;;;;;;;16.99;73.55;99804.94;4949531;28;20034;-95
2023/09/03 04:16:30;;;;;;;9.32;4.93;;;;;;;16.94;74.18;99811.28;4964338;28;20035;-96
2023/09/03 04:18:55;;;;;;;8.93;5.30;;;;;;;16.84;74.56;99801.41;4981979;28;20487;-96
2023/09/03 04:21:24;;;;;;;15.65;6.00;;;;;;;17.00;73.84;99793.78;4964986;28;20035;-96
2023/09/03 04:23:50;;;;;;;10.32;5.15;;;;;;;17.19;73.47;99836.41;4964768;28;20030;-96
2023/09/03 04:26:15;;;;;;;7.50;6.13;;;;;;;17.22;73.09;99808.59;4951547;28;20099;-96
2023/09/03 04:28:41;;;;;;;8.10;4.40;;;;;;;17.31;71.91;99801.34;4954529;28;20031;-96
2023/09/03 04:31:10;;;;;;;10.85;4.45;;;;;;;17.51;70.33;99797.38;4972160;28;20117;-96
2023/09/03 04:33:47;;;;;;;6.30;4.00;;;;;;;17.77;69.56;99822.16;4958211;28;20038;-96
2023/09/03 04:36:15;;;;;;;7.45;4.28;;;;;;;17.69;69.09;99814.72;4972614;28;20578;-96
2023/09/03 04:41:38;;;;;;;7.97;5.10;;;;;;;17.54;70.64;99799.50;4972651;28;20078;-96
2023/09/03 04:44:25;;;;;;;6.38;4.40;;;;;;;17.81;68.85;99803.31;4915435;29;20063;-96
2023/09/03 04:46:57;;;;;;;6.13;4.35;;;;;;;18.00;67.73;99816.81;4896596;29;20044;-96
2023/09/03 04:49:41;;;;;;;7.97;4.05;;;;;;;17.98;67.66;99798.03;4913160;29;20040;-96
2023/09/03 04:52:10;;;;;;;5.63;3.90;;;;;;;17.94;68.27;99811.47;4881856;29;20044;-96
2023/09/03 04:54:36;;;;;;;6.25;4.80;;;;;;;17.80;68.92;99807.94;4880282;29;20044;-96
2023/09/03 04:57:04;;;;;;;6.50;4.47;;;;;;;17.74;69.49;99796.34;4895102;29;20068;-96
2023/09/03 04:59:32;;;;;;;8.38;4.63;;;;;;;17.70;69.37;99791.81;4894819;29;20047;-96
2023/09/03 05:02:01;;;;;;;6.55;4.35;;;;;;;17.75;69.82;99797.16;4893788;29;20565;-96
2023/09/03 05:04:30;;;;;;;12.95;4.45;;;;;;;17.77;68.88;99794.94;4896191;29;20040;-96
2023/09/03 05:06:56;;;;;;;10.10;4.72;;;;;;;17.79;69.47;99798.16;4909996;29;20040;-96
2023/09/03 05:09:47;;;;;;;7.63;4.72;;;;;;;17.68;70.63;99774.97;4883468;28;20052;-96
2023/09/03 05:30:25;;;;;;;7.88;5.10;;;;;;;18.44;66.24;99815.22;5306130;23;20054;-96
2023/09/03 05:33:37;;;;;;;9.00;4.60;;;;;;;18.68;65.66;99825.84;4995240;28;20066;-96
2023/09/03 05:36:51;;;;;;;9.68;4.15;;;;;;;18.75;65.78;99823.44;4980967;28;20039;-96
2023/09/03 06:08:16;;;;;;;12.27;8.90;;;;;;;19.98;61.23;99803.66;5999772;23;20009;-96
2023/09/03 06:11:00;;;;;;;8.98;4.32;;;;;;;19.97;60.73;99800.13;4923259;28;20497;-96
2023/09/03 06:13:43;;;;;;;7.82;4.80;;;;;;;20.14;60.20;99798.53;4976227;28;20035;-96
2023/09/03 06:16:14;;;;;;;5.65;4.30;;;;;;;20.25;60.17;99810.75;4992117;28;20035;-96
2023/09/03 06:18:55;;;;;;;;;;;;;;;;;;;;;
2023/09/03 06:21:29;;;;;;;9.25;6.75;;;;;;;20.60;59.32;99821.69;4957704;28;20062;-96
2023/09/03 06:24:27;;;;;;;6.57;4.68;;;;;;;20.69;57.21;99802.50;4957557;28;20042;-96
2023/09/03 06:26:53;;;;;;;8.43;4.72;;;;;;;20.85;56.13;99803.59;4963855;28;20031;-95
2023/09/03 06:29:18;;;;;;;10.38;4.43;;;;;;;21.09;56.41;99813.19;4928599;28;20041;-96
2023/09/03 06:31:44;;;;;;;12.63;4.72;;;;;;;21.10;57.26;99815.59;4927680;28;20453;-96
2023/09/03 06:34:09;;;;;;;7.78;5.28;;;;;;;21.29;56.06;99809.72;4928180;28;20106;-96
2023/09/03 06:49:07;;;;;;;7.55;4.88;;;;;;;21.95;54.71;99805.63;4911924;29;20100;-96
2023/09/03 06:51:44;;;;;;;6.28;4.80;;;;;;;21.98;54.68;99800.28;4901154;29;20053;-96
2023/09/03 06:54:15;;;;;;;6.40;4.72;;;;;;;22.00;53.70;99794.50;4879735;29;20051;-96
2023/09/03 06:56:46;;;;;;;9.45;4.95;;;;;;;22.18;53.94;99798.69;4929520;29;20061;-96
2023/09/03 06:59:14;;;;;;;8.05;4.93;;;;;;;22.27;53.13;99798.66;4897551;29;20033;-96
2023/09/03 07:01:50;;;;;;;11.75;5.32;;;;;;;22.35;53.33;99788.72;4888465;29;20082;-96
2023/09/03 07:04:34;;;;;;;9.38;5.30;;;;;;;22.47;52.17;99801.69;4903184;29;20096;-96
2023/09/03 07:07:18;;;;;;;7.28;4.40;;;;;;;22.59;51.61;99797.03;4905928;29;20032;-96
2023/09/03 07:10:04;;;;;;;8.52;5.25;;;;;;;22.86;51.53;99799.50;4905808;29;20141;-96
2023/09/03 07:12:49;;;;;;;;;;;;;;;;;;;;;
2023/09/03 07:15:31;;;;;;;8.07;5.00;;;;;;;22.96;51.54;99790.81;4862978;29;20076;-96
2023/09/03 07:25:25;;;;;;;11.95;6.75;;;;;;;23.44;50.43;99804.97;4884805;29;20122;-96
2023/09/03 07:28:24;;;;;;;11.38;5.75;;;;;;;23.59;49.71;99816.06;4863535;29;20062;-96
2023/09/03 07:30:50;;;;;;;7.88;4.88;;;;;;;23.73;48.94;99809.38;4843202;29;20111;-95
2023/09/03 07:33:21;;;;;;;7.57;5.18;;;;;;;23.91;50.21;99815.47;4789638;29;20046;-95
2023/09/03 07:35:47;;;;;;;7.05;4.53;;;;;;;23.94;49.72;99806.50;4804760;29;20096;-96
2023/09/03 07:38:25;;;;;;;6.95;4.85;;;;;;;24.21;49.22;99821.44;4804552;29;20070;-96
2023/09/03 07:40:56;;;;;;;9.52;5.07;;;;;;;24.29;48.56;99801.22;4809069;29;20057;-96
2023/09/03 07:43:25;;;;;;;9.05;4.78;;;;;;;24.50;47.94;99814.81;4808468;29;20133;-96
2023/09/03 07:45:58;;;;;;;7.82;4.47;;;;;;;24.79;47.01;99827.41;4820836;29;20109;-96
2023/09/03 07:48:23;;;;;;;7.05;4.28;;;;;;;24.98;45.98;99820.41;4848479;29;20056;-96
2023/09/03 07:50:59;;;;;;;6.15;4.65;;;;;;;24.97;46.15;99810.53;4862972;29;20059;-96
2023/09/03 07:53:36;;;;;;;13.15;5.18;;;;;;;24.96;47.16;99808.94;4863249;29;20049;-96
2023/09/03 07:56:17;;;;;;;11.25;4.60;;;;;;;25.22;46.52;99836.00;4865677;29;20048;-96
2023/09/03 07:58:47;;;;;;;6.25;4.20;;;;;;;25.28;45.83;99803.47;4847793;29;20072;-96
2023/09/03 08:01:16;;;;;;;5.43;4.33;;;;;;;25.39;44.56;99813.56;4872402;29;20112;-96
2023/09/03 08:03:53;;;;;;;6.75;3.92;;;;;;;25.47;43.74;99808.25;4931491;29;20103;-96
2023/09/03 08:06:42;;;;;;;7.65;3.97;;;;;;;25.67;42.97;99807.13;4953135;28;20508;-96
2023/09/03 08:09:12;;;;;;;6.00;3.55;;;;;;;25.76;42.54;99804.19;4983588;28;20170;-96
2023/09/03 08:11:45;;;;;;;10.18;5.10;;;;;;;25.84;43.09;99808.69;4950516;28;20038;-96
2023/09/03 08:14:11;;;;;;;7.38;4.55;;;;;;;25.95;42.63;99798.69;4951762;28;20133;-96
2023/09/03 08:16:42;;;;;;;4.95;3.75;;;;;;;25.96;41.42;99789.28;4949995;28;20041;-96
2023/09/03 08:19:08;;;;;;;6.63;4.00;;;;;;;26.19;42.17;99810.63;4965199;28;20034;-96
2023/09/03 08:21:36;;;;;;;5.97;4.22;;;;;;;26.14;43.83;99788.84;4967597;28;20099;-96
2023/09/03 08:24:04;;;;;;;7.95;5.03;;;;;;;26.20;41.82;99784.63;4953170;28;20031;-96
2023/09/03 08:26:36;;;;;;;6.18;3.88;;;;;;;26.52;41.15;99798.25;4968037;28;20452;-96
2023/09/03 08:29:04;;;;;;;5.53;3.50;;;;;;;26.38;41.26;99790.50;4964394;28;20070;-95
2023/09/03 08:31:29;;;;;;;6.00;3.70;;;;;;;26.40;41.05;99766.88;4980962;28;20034;-96
2023/09/03 08:33:57;;;;;;;6.22;3.55;;;;;;;26.59;40.91;99788.16;4980331;28;20125;-96
2023/09/03 08:36:24;;;;;;;4.90;3.60;;;;;;;26.64;40.78;99764.16;4963759;28;20033;-96
2023/09/03 08:38:53;;;;;;;4.35;3.60;;;;;;;26.78;40.10;99783.75;4964741;28;20057;-96
2023/09/03 08:41:25;;;;;;;4.85;3.42;;;;;;;26.80;39.62;99784.19;4949924;28;20106;-96
2023/09/03 08:44:02;;;;;;;3.72;3.00;;;;;;;26.79;39.17;99766.00;4968812;28;20408;-96
2023/09/03 08:46:34;;;;;;;4.25;3.10;;;;;;;26.84;38.57;99759.38;4970258;28;20035;-96
2023/09/03 08:49:22;;;;;;;4.90;3.70;;;;;;;26.93;38.43;99766.25;4982537;28;20121;-96
2023/09/03 08:52:17;;;;;;;3.45;2.67;;;;;;;27.08;36.67;99780.31;4969620;28;20047;-96
2023/09/03 08:54:43;;;;;;;3.80;2.30;;;;;;;27.11;34.57;99768.53;4962278;28;20039;-96
2023/09/03 08:57:12;;;;;;;3.72;2.25;;;;;;;27.17;35.02;99747.69;4982721;28;20034;-96
2023/09/03 08:59:40;;;;;;;2.92;2.08;;;;;;;27.19;36.18;99748.91;4969361;28;20085;-96
2023/09/03 09:02:12;;;;;;;3.55;2.30;;;;;;;27.22;34.82;99741.81;4974256;28;20019;-96
2023/09/03 09:04:38;;;;;;;4.20;2.10;;;;;;;27.32;35.05;99743.97;4952782;28;20027;-96
2023/09/03 09:07:10;;;;;;;4.25;2.60;;;;;;;27.37;34.50;99751.97;4971242;28;20489;-96
2023/09/03 09:10:01;;;;;;;5.57;2.40;;;;;;;27.47;33.01;99760.78;4983838;28;20045;-96
2023/09/03 09:12:50;;;;;;;7.10;2.60;;;;;;;27.53;31.63;99751.00;4983069;28;20043;-96
2023/09/03 09:15:16;;;;;;;6.80;2.65;;;;;;;27.54;32.37;99736.81;4981288;28;20286;-96
2023/09/03 09:17:48;;;;;;;4.95;2.53;;;;;;;27.58;32.70;99740.41;4948857;28;20030;-96
2023/09/03 09:20:19;;;;;;;3.13;2.20;;;;;;;27.54;32.60;99731.28;4947993;28;20039;-96
2023/09/03 09:22:49;;;;;;;7.10;2.33;;;;;;;27.66;32.69;99732.19;4948288;28;20039;-96
2023/09/03 09:25:22;;;;;;;3.97;2.50;;;;;;;27.64;32.90;99721.50;4948277;28;20468;-95
2023/09/03 09:27:52;;;;;;;3.85;2.20;;;;;;;27.76;32.48;99726.78;4947400;28;20031;-96
2023/09/03 09:30:26;;;;;;;3.75;2.47;;;;;;;27.84;32.63;99724.91;4963786;28;20042;-96
2023/09/03 09:33:05;;;;;;;4.47;2.20;;;;;;;27.93;32.27;99724.66;4946814;28;20386;-95
2023/09/03 09:35:31;;;;;;;5.53;2.33;;;;;;;27.98;32.75;99710.50;4946776;28;20038;-96
2023/09/03 09:38:18;;;;;;;4.00;2.30;;;;;;;27.97;32.27;99698.63;4945674;28;20039;-96
2023/09/03 09:41:28;;;;;;;3.83;2.38;;;;;;;28.13;32.59;99712.22;4966280;28;20109;-96
2023/09/03 09:43:54;;;;;;;4.47;2.20;;;;;;;28.07;32.18;99710.97;4965728;28;20030;-96
2023/09/03 09:46:47;;;;;;;5.30;2.35;;;;;;;28.11;32.69;99702.72;4964975;28;20116;-96
2023/09/03 09:49:50;;;;;;;5.55;3.00;;;;;;;28.29;31.98;99703.69;4948354;29;20047;-96
2023/09/03 09:52:21;;;;;;;3.75;2.30;;;;;;;28.42;31.13;99710.56;4956499;29;20044;-96
2023/09/03 09:54:55;;;;;;;4.70;2.60;;;;;;;28.48;30.70;99705.47;4962925;29;20122;-96
2023/09/03 09:57:29;;;;;;;4.18;2.10;;;;;;;28.39;30.29;99678.09;4947135;29;20063;-96
2023/09/03 09:59:59;;;;;;;3.17;2.15;;;;;;;28.30;30.72;99688.66;4976963;28;20046;-96
2023/09/03 10:02:25;;;;;;;3.95;2.25;;;;;;;28.34;30.35;99686.72;4959476;29;20481;-96
2023/09/03 10:04:51;;;;;;;2.55;1.70;;;;;;;28.14;30.79;99677.84;4959479;29;20102;-96
2023/09/03 10:07:17;;;;;;;3.65;2.20;;;;;;;28.11;31.05;99686.91;4974218;28;20035;-96
2023/09/03 10:09:59;;;;;;;2.50;2.10;;;;;;;28.25;30.72;99675.19;4974912;28;20032;-96
2023/09/03 10:12:28;;;;;;;5.05;2.03;;;;;;;28.20;29.92;99667.19;4958900;29;20042;-96
2023/09/03 10:15:14;;;;;;;;;;;;;;;;;;;;;
2023/09/03 10:17:41;;;;;;;2.40;1.88;;;;;;;28.32;30.15;99671.69;4961682;29;20106;-95
2023/09/03 10:20:10;;;;;;;2.70;1.70;;;;;;;28.31;29.51;99651.50;4944087;29;20031;-96
2023/09/03 10:25:58;;;;;;;;;;;;;;;28.52;29.98;99670.31;4960184;29;20122;-96
2023/09/03 10:28:23;;;;;;;2.88;2.00;;;;;;;28.44;29.93;99646.47;4958385;29;20372;-94
2023/09/03 10:30:51;;;;;;;3.35;2.05;;;;;;;28.49;29.45;99646.13;4943120;29;20501;-96
2023/09/03 10:33:20;;;;;;;4.82;2.47;;;;;;;28.61;29.58;99659.69;4976054;28;20035;-96
2023/09/03 10:36:14;;;;;;;3.13;2.05;;;;;;;28.65;29.17;99659.72;4941835;29;20039;-96
2023/09/03 10:38:42;;;;;;;2.30;1.90;;;;;;;28.60;29.03;99652.56;4960841;28;20529;-96
2023/09/03 10:41:22;;;;;;;4.05;1.77;;;;;;;28.53;28.73;99657.25;4943975;29;20098;-96
2023/09/03 10:43:52;;;;;;;3.53;2.00;;;;;;;28.54;28.63;99645.00;4942698;29;20023;-96
2023/09/03 10:46:17;;;;;;;2.95;1.92;;;;;;;28.51;28.24;99640.22;4943713;29;20588;-96
2023/09/03 10:48:51;;;;;;;3.53;2.10;;;;;;;28.48;28.73;99636.22;4942226;29;20087;-96
2023/09/03 10:51:41;;;;;;;3.10;2.10;;;;;;;28.72;28.60;99643.16;4976048;28;20031;-95
2023/09/03 10:54:24;;;;;;;3.67;2.10;;;;;;;28.81;28.97;99646.38;4974732;28;20462;-96
2023/09/03 10:57:06;;;;;;;3.70;2.00;;;;;;;28.87;28.93;99646.81;4958102;28;20046;-96
2023/09/03 10:59:50;;;;;;;;;;;;;;;28.94;29.15;99641.31;4960520;29;20078;-96
2023/09/03 11:02:48;;;;;;;3.10;2.38;;;;;;;28.97;28.69;99632.25;4959830;29;19966;-96
2023/09/03 11:05:22;;;;;;;4.60;2.50;;;;;;;29.07;28.09;99633.47;4940577;29;20042;-96
2023/09/03 11:08:30;;;;;;;;;;;;;;;;;;;;;
2023/09/03 11:10:56;;;;;;;4.35;1.83;;;;;;;28.96;27.85;99619.53;4959363;29;20090;-96
2023/09/03 11:13:27;;;;;;;3.67;2.20;;;;;;;28.93;28.53;99611.19;4959268;29;20110;-96
2023/09/03 11:15:56;;;;;;;3.58;2.35;;;;;;;28.99;27.85;99618.78;4942244;29;20047;-96
2023/09/03 11:18:25;;;;;;;3.13;2.10;;;;;;;28.89;28.34;99604.84;4956822;29;20035;-96
2023/09/03 11:21:00;;;;;;;5.80;2.28;;;;;;;28.98;28.19;99610.84;4941399;29;20031;-96
2023/09/03 11:23:27;;;;;;;4.35;2.20;;;;;;;29.07;27.65;99607.72;4975401;28;20039;-96
2023/09/03 11:25:53;;;;;;;3.00;2.05;;;;;;;29.06;27.90;99581.19;4958825;29;20537;-96
2023/09/03 11:28:19;;;;;;;3.50;2.30;;;;;;;29.14;27.68;99591.94;4942012;29;20039;-96
2023/09/03 11:30:57;;;;;;;4.38;2.10;;;;;;;29.24;28.61;99578.50;4959800;28;20505;-96
2023/09/03 11:33:28;;;;;;;7.43;2.92;;;;;;;29.26;28.27;99568.63;4945035;29;20114;-96
2023/09/03 11:35:54;;;;;;;3.88;2.30;;;;;;;29.41;27.59;99569.47;4942728;29;20046;-96
2023/09/03 11:38:24;;;;;;;3.92;2.35;;;;;;;29.43;27.66;99572.66;4959773;29;20036;-96
2023/09/03 11:40:54;;;;;;;3.87;2.20;;;;;;;29.43;27.58;99569.88;4941891;29;20071;-96
2023/09/03 11:43:29;;;;;;;4.72;2.00;;;;;;;29.45;27.55;99567.50;4975143;28;20130;-96
2023/09/03 11:45:55;;;;;;;3.53;2.00;;;;;;;29.36;28.00;99567.06;4942899;28;20091;-96
2023/09/03 11:48:37;;;;;;;2.75;2.05;;;;;;;29.40;27.54;99556.78;4945307;29;20096;-96
2023/09/03 11:51:06;;;;;;;3.03;2.00;;;;;;;29.30;27.29;99544.47;4976858;28;20117;-96
2023/09/03 11:53:52;;;;;;;3.67;2.28;;;;;;;29.25;27.40;99532.97;4949143;29;20035;-96
2023/09/03 11:56:21;;;;;;;2.83;2.05;;;;;;;29.33;27.20;99542.91;4946368;29;20051;-96
2023/09/03 11:58:48;;;;;;;9.15;5.97;;;;;;;29.31;27.33;99536.94;4947270;29;20072;-96
2023/09/03 12:01:19;;;;;;;3.00;2.45;;;;;;;29.42;26.80;99543.31;4947038;29;20043;-96
2023/09/03 12:03:48;;;;;;;2.63;2.15;;;;;;;29.35;27.39;99527.44;4962362;29;20173;-96
2023/09/03 12:06:23;;;;;;;4.80;2.33;;;;;;;29.24;28.23;99539.69;4945274;29;20066;-96
2023/09/03 12:09:01;;;;;;;4.22;2.35;;;;;;;29.33;27.31;99529.81;4976341;28;20043;-96
2023/09/03 12:11:36;;;;;;;3.53;2.20;;;;;;;29.35;27.63;99519.13;4947535;29;20198;-96
2023/09/03 12:14:11;;;;;;;3.40;2.50;;;;;;;29.28;28.13;99518.31;4971411;29;20039;-96
2023/09/03 12:16:48;;;;;;;3.83;2.30;;;;;;;29.47;27.99;99520.75;4956137;29;20070;-96
2023/09/03 12:26:58;;;;;;;3.22;2.22;;;;;;;29.28;27.17;99483.06;4967075;28;20075;-96
2023/09/03 12:29:32;;;;;;;4.03;2.22;;;;;;;29.38;26.77;99506.44;4975296;28;20082;-96
2023/09/03 12:32:47;;;;;;;;;;;;;;;;;;;;;
2023/09/03 12:35:45;;;;;;;9.55;2.35;;;;;;;29.16;27.69;99480.66;4977105;28;20065;-96
2023/09/03 12:41:26;;;;;;;4.43;2.90;;;;;;;29.51;27.56;99482.72;3336936;23;61617900;-96
2023/09/03 12:44:08;;;;;;;4.32;2.35;;;;;;;29.44;27.98;99470.78;4917547;29;20125;-96
2023/09/03 12:51:47;;;;;;;4.30;2.50;;;;;;;29.45;27.88;99481.50;5624813;23;20272;-96
2023/09/03 13:00:23;;;;;;;7.00;2.40;;;;;;;29.60;28.35;99465.66;5075710;23;20059;-96
2023/09/03 13:06:29;;;;;;;2.70;2.15;;;;;;;30.00;27.13;99469.25;5025617;23;20074;-96
2023/09/03 13:09:03;;;;;;;3.88;2.05;;;;;;;30.01;27.29;99459.75;4980453;28;20049;-96
2023/09/03 13:11:35;;;;;;;4.72;1.85;;;;;;;30.11;26.11;99458.13;4955775;28;20074;-96
2023/09/03 13:14:01;;;;;;;2.78;1.77;;;;;;;30.27;26.04;99447.38;4971320;28;20051;-96
2023/09/03 13:16:29;;;;;;;3.22;1.83;;;;;;;30.41;25.62;99452.16;4972206;28;20117;-96
2023/09/03 13:19:00;;;;;;;4.25;1.77;;;;;;;30.65;25.28;99452.47;4970970;28;20026;-96
2023/09/03 13:21:33;;;;;;;;;;;;;;;30.82;24.82;99457.97;4971210;28;20035;-95
2023/09/03 13:26:50;;;;;;;3.30;1.80;;;;;;;30.92;25.25;99436.91;5151973;23;20035;-96
2023/09/03 13:29:40;;;;;;;3.13;1.80;;;;;;;31.11;24.21;99455.06;4948737;28;20053;-96
2023/09/03 13:32:38;;;;;;;3.60;1.80;;;;;;;31.08;24.20;99455.09;4929853;29;20066;-96
2023/09/03 13:35:36;;;;;;;2.95;2.00;;;;;;;30.98;24.87;99426.94;4892277;29;20039;-96
2023/09/03 13:39:04;;;;;;;3.67;2.03;;;;;;;31.01;24.52;99425.34;4978656;29;20067;-96
2023/09/03 13:42:08;;;;;;;2.38;1.70;;;;;;;30.92;24.76;99425.78;4903127;29;20107;-96
2023/09/03 13:44:35;;;;;;;2.50;1.58;;;;;;;30.93;24.88;99432.13;5048673;23;20067;-96
2023/09/03 13:47:53;;;;;;;3.15;1.80;;;;;;;30.80;24.52;99420.66;4960595;28;20039;-96
2023/09/03 13:50:46;;;;;;;3.90;1.98;;;;;;;30.81;25.40;99434.13;5921044;23;20036;-96
2023/09/03 13:54:05;;;;;;;2.85;1.90;;;;;;;30.59;25.18;99422.31;4943000;28;20068;-96
2023/09/03 14:02:22;;;;;;;3.22;1.90;;;;;;;30.81;24.99;99423.00;5509362;23;20535;-96
2023/09/03 14:07:45;;;;;;;3.97;1.80;;;;;;;30.82;24.31;99404.34;5860293;23;20038;-96
2023/09/03 14:13:06;;;;;;;2.83;1.73;;;;;;;30.45;24.80;99396.59;5499781;23;20098;-96
2023/09/03 14:15:39;;;;;;;2.97;1.90;;;;;;;30.66;24.95;99396.47;4954446;28;20054;-96
2023/09/03 14:18:18;;;;;;;2.63;1.63;;;;;;;30.67;24.24;99380.59;4976727;28;20042;-96
2023/09/03 14:21:22;;;;;;;2.53;1.60;;;;;;;30.61;24.36;99364.34;4965970;28;20027;-96
2023/09/03 14:24:42;;;;;;;4.55;1.80;;;;;;;30.66;23.99;99385.38;4998329;28;20065;-96